Archil Arveladze

Recruteur en chef - Torpedo Kutaisi
9 Déc 2027
Jeudi
Processus

Personnalité

Adaptabilité (5) Ambition (18) Controverse (9) Loyauté (13) Pression (1) Professionnalisme (6) Sportivité (19) Tempérament (1)

Profil

Style d'entraînement Démocratique
Diplôme National B
Détermination 7
Gestion des joueurs 7
Motivation 5
Discipline 7
Satisfaction professionnelle
100%
Fatigue
0%
Rôle Recruteur en chef
Salaire 61.3K p/s
Contrat 14.03.2030

Performance

Comportement Bon
Efficacité de l'entraînement
33%
Développement des joueurs
55%
Prévention des blessures
30%
Mise en place tactique
25%

Événements récents

A évalué un joueur maintenant
A participé à une réunion de recrutement maintenant
A recommandé une cible de transfert 7j
A évalué un joueur 7j
A évalué un joueur 7j
A évalué un joueur 7j
A évalué un joueur 7j
A évalué un joueur 7j

Suivi en cours

179
Joueur Club Statut Capacité Confiance Observé Dernière observation Dernier vote
Esteban da Silva Racing Actif 108 / 104 40% 4 06.12.2027 -
Prince Ukachukwu Sumgayit Actif 121 / 104 40% 2 06.12.2027 -
François Kamano Sochi Actif 103 / 125 40% 5 04.12.2027 -
Itumeleng Erasmus CFR Cluj Actif 142 / 134 40% 2 04.12.2027 -
Edarlyn Reyes Arsenal Tula Actif 130 / 116 40% 5 02.12.2027 -
Agustín Módica Gimnasia y Esgrima Actif 101 / 131 40% 2 02.12.2027 -
Gustavo Viera Cerro Largo Actif 117 / 108 40% 2 01.12.2027 -
Mauro Méndez Tigre Actif 140 / 121 40% 1 01.12.2027 -
Gabriel Taliari Juventude Actif 132 / 132 40% 4 30.11.2027 -
Tomás Fernández Aldosivi Actif 107 / 118 40% 3 28.11.2027 -
Iuri Tavares NK Varazdin Actif 137 / 122 40% 1 28.11.2027 -
Olaniyi Saheed Kwara United Actif 118 / 100 40% 3 27.11.2027 -
Celías Ingenthron Vélez Actif 113 / 120 40% 2 27.11.2027 -
Colby Bishop Rotherham United Actif 108 / 119 40% 1 27.11.2027 -
Juan Rocca Gimnasia y Tiro Actif 100 / 102 40% 5 25.11.2027 -
Evgeniy Malashevich Dinamo Brest Actif 94 / 95 40% 4 25.11.2027 -
Jayden Joseph Bradford City Actif 115 / 111 40% 1 24.11.2027 -
Samuel Posada Leones Actif 87 / 86 40% 3 23.11.2027 -
Alexander Díaz Deportivo Riestra Actif 128 / 126 40% 3 21.11.2027 -
Mauro Valiente Estudiantes Actif 121 / 113 40% 2 19.11.2027 -
Victor Duque Deportes Tolima Actif 113 / 115 40% 1 19.11.2027 -
Martin Sekulić Ural Actif 100 / 106 40% 2 18.11.2027 -
Aiden Hezarkhani Real Salt Lake Actif 82 / 91 40% 1 18.11.2027 -
Samuel Martín Millonarios Actif 114 / 117 40% 1 18.11.2027 -
Alejandro Melo Cibalia Actif 135 / 109 40% 2 17.11.2027 -
Carlos Fernández Oviedo Actif 124 / 136 40% 1 17.11.2027 -
Rodrigo Bogarín Barracas Central Actif 128 / 112 40% 3 15.11.2027 -
Genaro Rossi San Martín SJ Actif 98 / 116 40% 2 15.11.2027 -
Sebastián Cocimano Nueva Chicago Actif 92 / 114 40% 4 14.11.2027 -
Lucas Varaldo Central Córdoba SdE Actif 130 / 125 40% 2 14.11.2027 -
Lucas Carrizo Plaza Colonia Actif 129 / 106 40% 2 13.11.2027 -
Carlos Torres Orenburg Actif 93 / 93 40% 1 11.11.2027 -
Alfio Oviedo Tigre Actif 131 / 114 40% 3 09.11.2027 -
Matías Canedo Rampla Juniors Actif 65 / 93 40% 1 09.11.2027 -
Zahir Ibarra Defensa y Justicia Actif 113 / 113 40% 1 09.11.2027 -
Matías Tissera Instituto Actif 95 / 122 40% 3 07.11.2027 -
Santiago Rodríguez Gimnasia y Esgrima Actif 122 / 126 40% 2 07.11.2027 -
Daniel Gomez Valledupar Actif 84 / 100 40% 2 07.11.2027 -
Nika Kvaratskhelia Tskhinvali Actif 82 / 89 40% 1 07.11.2027 -
Matías Sosa Arsenal Actif 129 / 112 40% 3 05.11.2027 -
Vladislav Yatskevich BATE Actif 93 / 93 40% 5 04.11.2027 -
Nicolás Ferreyra Gimnasia y Esgrima Actif 92 / 112 40% 2 03.11.2027 -
Brayan Alcócer Rubin Actif 116 / 113 40% 1 01.11.2027 -
Bahia Criciuma Actif 125 / 130 40% 1 01.11.2027 -
Gianluca Pugliese Güemes Actif 94 / 113 40% 3 28.10.2027 -
Marco Miori Alvarado Actif 92 / 113 40% 2 28.10.2027 -
Nicolás Molina Temperley Actif 108 / 106 40% 2 27.10.2027 -
Jonás Acevedo Instituto Actif 128 / 122 40% 3 26.10.2027 -
Jorge Obregón Deportivo Pasto Actif 93 / 117 40% 2 26.10.2027 -
Elías Ayala Madryn Actif 94 / 102 40% 2 24.10.2027 -
Kevin Méndez Dinamo Tbilisi Actif 114 / 114 40% 4 23.10.2027 -
Nicolás Heiz Maipú Actif 97 / 114 40% 1 22.10.2027 -
Agustín Gallo Tristán Suárez Actif 119 / 113 40% 3 19.10.2027 -
Nicolás Cordero Aldosivi Actif 122 / 114 40% 2 19.10.2027 -
Frankie Westfield Philadelphia Union Actif 89 / 111 40% 1 17.10.2027 -
Tiago Gordillo San Miguel Actif 65 / 92 40% 1 17.10.2027 -
Juan Mendoza Güemes Actif 120 / 94 40% 1 13.10.2027 -
Luca Martínez Dupuy Godoy Cruz Actif 139 / 112 40% 2 11.10.2027 -
Cristian Rivas Bogota Actif 87 / 104 40% 2 10.10.2027 -
Renzo Reynaga Patronato Actif 93 / 113 40% 1 10.10.2027 -
Mateo Rodríguez Artigas Actif 71 / 87 40% 2 08.10.2027 -
Agustín Obregón River Plate Actif 102 / 121 40% 1 08.10.2027 -
Álvaro Navoni Tigre Actif 75 / 101 40% 1 07.10.2027 -
Blas Armoa Gimnasia y Esgrima Actif 115 / 117 40% 4 05.10.2027 -
Juan David Rueda Alianza Petrolera Actif 116 / 108 40% 1 04.10.2027 -
Brian Mansilla Akhmat Grozny Actif 131 / 124 40% 1 03.10.2027 -
Javier Martínez Almirante Brown Actif 103 / 102 40% 2 30.09.2027 -
Abel Argañaraz Gimnasia y Esgrima Actif 88 / 104 40% 3 28.09.2027 -
Lisandro Cabrera Maipú Actif 96 / 118 40% 2 27.09.2027 -
Santiago Sala Güemes Actif 128 / 102 40% 1 24.09.2027 -
Mateo Bajamich Atlético Tucumán Actif 132 / 116 40% 1 23.09.2027 -
Martín Garnerone Estudiantes Actif 98 / 123 40% 1 22.09.2027 -
Federico Álvarez Atlanta Actif 97 / 107 40% 1 20.09.2027 -
Steven Alfred Torpedo-BelAZ Actif 87 / 90 40% 1 18.09.2027 -
Alan Bonansea Colón Actif 90 / 108 40% 1 18.09.2027 -
Irakli Kvilitaia Tskhinvali Actif 118 / 116 44% 2 17.09.2027 -
Antony Alonso Deportivo Riestra Actif 109 / 127 40% 1 08.09.2027 -
Santiago Apa All Boys Actif 97 / 120 40% 1 01.09.2027 -
Matías Sosa Arsenal Perdu 108 / 101 40% 1 19.08.2027 -
Luca Franco Arsenal Actif 91 / 103 40% 1 16.08.2027 -
Fuzy Taylor Medeama Actif 97 / 83 40% 3 09.08.2027 -
Humphrey Obina Shabana Actif 60 / 73 40% 1 09.08.2027 -
Juan Rocca Gimnasia y Tiro Perdu 132 / 107 40% 1 02.08.2027 -
José Álvarez Albion Perdu 135 / 117 40% 1 02.08.2027 -
Baran Gezek Alanyaspor Actif 94 / 107 40% 1 24.06.2027 -
David Atiemo Liberty Professionals Actif 71 / 93 40% 1 21.06.2027 -
Josh Smith Accrington Stanley Actif 86 / 95 40% 1 19.06.2027 -
Zaïd BafdilI Sporting CP Actif 111 / 108 40% 1 19.06.2027 -
Kazunari Kita Real Sociedad Actif 115 / 108 40% 1 16.06.2027 -
Saba Kvaratskhelia Tskhinvali Actif 104 / 88 44% 1 14.06.2027 -
Goga Kobiashvili Veres Actif 92 / 92 69% 1 01.06.2027 Approuver
Augusto Berrondo Tristán Suárez Actif 86 / 102 40% 1 31.05.2027 -
Francesco Toffanin Virtus Verona Actif 82 / 95 40% 2 28.05.2027 -
Ekain Orobengoa Real Sociedad Actif 79 / 96 40% 3 25.05.2027 -
Gilson Benchimol Akron Actif 118 / 122 40% 4 23.05.2027 -
Thomas Waddingham Portsmouth Actif 127 / 113 40% 2 22.05.2027 -
Vladislav Sarveli Nizhniy Novgorod Actif 128 / 117 40% 5 21.05.2027 -
Kamran Aliev SKA Khabarovsk Actif 123 / 110 40% 3 20.05.2027 -
Amur Kalmykov Spartak Kostroma Actif 92 / 113 40% 3 20.05.2027 -
Dmitry Tsypchenko Torpedo Moscow Actif 87 / 113 40% 3 19.05.2027 -
Jorge Meireles AVS Actif 96 / 113 40% 4 19.05.2027 -
Edwin Cerrillo Club America Actif 102 / 102 40% 2 16.05.2027 -
Miroslav Bogosavac Akhmat Grozny Actif 134 / 118 40% 1 16.05.2027 -
Anderson Pafos Actif 100 / 103 40% 1 16.05.2027 -
Gustavo Rodriguez Valledupar Actif 82 / 109 40% 1 15.05.2027 -
Temirkan Sundukov Dinamo Makhachkala Actif 118 / 122 40% 2 11.05.2027 -
Sebastián Arce Rodina Actif 108 / 118 40% 3 11.05.2027 -
Ítalo Ural Actif 109 / 121 40% 1 11.05.2027 -
Irakli Yegoian Excelsior Actif 119 / 124 40% 1 11.05.2027 -
David Davidyan Rotor Actif 91 / 95 40% 2 08.05.2027 -
Gamid Agalarov Dinamo Makhachkala Actif 113 / 102 40% 3 07.05.2027 -
Naoufal Bannis Vitesse Actif 118 / 98 40% 1 06.05.2027 -
Eren Aydın Zira Actif 112 / 113 40% 3 05.05.2027 -
Kerim Çalhanoğlu Gaziantep Actif 96 / 113 40% 2 03.05.2027 -
Edson Real Sociedad Actif 126 / 113 40% 1 03.05.2027 -
Íñigo Racing Santander Actif 123 / 116 40% 1 02.05.2027 -
Matías Gómez Granada Actif 117 / 123 40% 1 02.05.2027 -
Shayne Lavery Cambridge United Actif 116 / 111 40% 4 30.04.2027 -
Eddy Ozobic Inter Actif 115 / 104 40% 5 26.04.2027 -
Markus Jensen Nacional Actif 121 / 121 40% 1 25.04.2027 -
Léo Cordeiro Ural Actif 100 / 117 40% 1 23.04.2027 -
Mohammad Javad Hosseinnejad Dinamo Makhachkala Actif 131 / 116 40% 1 23.04.2027 -
Roman Yezhov Sochi Actif 120 / 112 40% 1 19.04.2027 -
David Karaev KAMAZ Actif 98 / 105 40% 1 15.04.2027 -
Thomas Amang Rubin Actif 119 / 111 40% 1 10.04.2027 -
Ilja Vakhania Krasnodar Actif 132 / 108 40% 1 08.04.2027 -
Youssouf Tokindang US Moursal Actif 78 / 64 40% 1 03.04.2027 -
Alexandr Saplinov Volga Actif 121 / 100 40% 1 02.04.2027 -
Maxim Mukhin Rostov Actif 113 / 126 40% 2 31.03.2027 -
Juanjo Narváez Al-Ra'ed Actif 98 / 106 40% 1 30.03.2027 -
Alexandr Yushin Torpedo Moscow Actif 112 / 109 40% 2 26.03.2027 -
Chinonso Offor Baltika Actif 91 / 98 40% 1 21.03.2027 -
Amar Rahmanović Krylya Sovetov Actif 99 / 106 40% 2 20.03.2027 -
Denis Rubanov Dinamo Stavropol Actif 69 / 77 40% 2 19.03.2027 -
Nikita Pogrebnev Ryazan Actif 74 / 82 40% 1 19.03.2027 -
Aaron Drinan Swindon Town Actif 85 / 109 40% 2 17.03.2027 -
Gonzalo Gamarra Floriana Actif 112 / 96 40% 1 14.03.2027 -
Pedro Bicalho Qarabag Actif 144 / 126 40% 1 14.03.2027 -
Edgardo Fariña Nizhniy Novgorod Actif 128 / 112 40% 2 13.03.2027 -
David Kokoev Yenisey Actif 125 / 100 40% 1 13.03.2027 -
Vladislav Yakovlev Volga Actif 79 / 82 40% 2 12.03.2027 -
Ilja Agapov Ufa Actif 115 / 124 40% 2 09.03.2027 -
Amaury Morales Pumas UNAM Actif 102 / 127 40% 1 09.03.2027 -
Ruslan Apekov Torpedo Moscow Actif 82 / 98 40% 2 08.03.2027 -
Artem Maximenko Nizhniy Novgorod Actif 93 / 119 40% 1 06.03.2027 -
Damir Céter Hamrun Spartans Actif 96 / 111 40% 1 05.03.2027 -
Kenan Dervišagić Floriana Actif 120 / 104 40% 1 04.03.2027 -
Georgy Melkadze Akhmat Grozny Actif 93 / 117 40% 1 28.02.2027 -
Everton Bala Levski Actif 144 / 118 40% 3 23.02.2027 -
Harvey White Stevenage Actif 115 / 127 40% 1 20.02.2027 -
Ugochukwu Iwu Rubin Actif 135 / 107 40% 2 15.02.2027 -
Veldin Hodža Rubin Actif 144 / 113 40% 1 15.02.2027 -
Omar Popov Dinamo St Petersburg Actif 74 / 74 40% 1 13.02.2027 -
Vladimir Khubulov Dinamo Makhachkala Actif 85 / 107 40% 2 12.02.2027 -
Robert Murić Floriana Actif 114 / 107 40% 2 12.02.2027 -
Vyacheslav Grulev Nizhniy Novgorod Actif 131 / 104 40% 3 11.02.2027 -
Chinedu Geoffrey Krylya Sovetov Actif 135 / 106 40% 1 08.02.2027 -
Yussif Saidu Zaragoza Actif 142 / 128 40% 1 07.02.2027 -
Evidence Dala Black Aces Actif 96 / 117 40% 1 06.02.2027 -
Mikhail Ignatov Sochi Actif 130 / 114 40% 1 03.02.2027 -
Slobodan Tedić Akron Actif 90 / 110 40% 2 25.01.2027 -
Nathan Gassama Baltika Actif 127 / 116 40% 2 24.01.2027 -
Jofre Torrents Ajax Actif 119 / 116 40% 1 23.01.2027 -
Jordan Brown Blackpool Actif 110 / 104 40% 1 21.01.2027 -
Jhon Palacios Orenburg Actif 95 / 108 40% 2 18.01.2027 -
Isaac Kyereh Liberty Professionals Actif 101 / 115 40% 1 11.01.2027 -
Ousmane Ndong Akhmat Grozny Actif 88 / 98 40% 1 08.01.2027 -
Vagner Gonçalves Nogueira Kolkheti Actif 101 / 101 67% 1 01.01.2027 Approuver
Serder Serderov Dinamo Makhachkala Actif 99 / 103 40% 1 31.12.2026 -
Tenton Yenne Baltika Actif 109 / 106 40% 1 29.12.2026 -
Alexandr Shlenkin Dinamo Bryansk Actif 79 / 81 40% 1 27.12.2026 -
Lévy Néne FC Nordsjaelland Actif 94 / 123 40% 1 26.12.2026 -
Yeangel Montero Naxxar Lions Actif 90 / 105 40% 1 23.12.2026 -
Yago Santiago Racing Santander Actif 110 / 133 40% 1 20.12.2026 -
Bruno Gomes Valletta Actif 86 / 89 40% 1 16.12.2026 -
Bohdan Boichuk Khazar Perdu 109 / 110 40% 1 16.12.2026 -
Jonás Luna Santa Clara Actif 104 / 109 40% 1 10.12.2026 -
Taofeek Ismaheel Qarabag Actif 111 / 117 40% 1 09.12.2026 -
Giorgi Mchedlishvili Samtredia Actif 105 / 110 41% 1 03.08.2026 -